createdAt,value
2023-09-18T00:00:33.802Z,45.95
2023-09-18T00:03:04.060Z,45.93
2023-09-18T00:05:31.060Z,46.02
2023-09-18T00:07:57.572Z,45.81
2023-09-18T00:10:24.118Z,45.98
2023-09-18T00:12:50.634Z,45.94
2023-09-18T00:15:17.061Z,45.93
2023-09-18T00:17:43.573Z,45.87
2023-09-18T00:20:10.625Z,46.01
2023-09-18T00:22:37.120Z,46.09
2023-09-18T00:25:03.725Z,46.17
2023-09-18T00:27:30.450Z,46.03
2023-09-18T00:29:56.885Z,46.05
2023-09-18T00:32:23.535Z,46.06
2023-09-18T00:34:50.050Z,45.83
2023-09-18T00:37:17.822Z,45.90
2023-09-18T00:39:45.314Z,46.05
2023-09-18T00:42:14.986Z,45.74
2023-09-18T00:44:42.223Z,45.69
2023-09-18T00:47:09.777Z,45.93
2023-09-18T00:49:37.521Z,45.81
2023-09-18T00:52:04.911Z,46.03
2023-09-18T00:54:32.470Z,45.85
2023-09-18T00:56:59.290Z,45.94
2023-09-18T00:59:26.053Z,45.86
2023-09-18T01:01:53.604Z,45.87
2023-09-18T01:04:20.972Z,45.71
2023-09-18T01:06:48.301Z,45.81
2023-09-18T01:09:16.150Z,45.85
2023-09-18T01:11:48.820Z,45.76
2023-09-18T01:14:15.230Z,45.86
2023-09-18T01:17:11.547Z,45.82
2023-09-18T01:19:38.980Z,46.05
2023-09-18T01:22:06.458Z,46.19
2023-09-18T01:24:33.949Z,46.35
2023-09-18T01:27:00.393Z,46.50
2023-09-18T01:29:26.883Z,46.26
2023-09-18T01:31:53.528Z,46.00
2023-09-18T01:34:21.594Z,45.89
2023-09-18T01:36:48.429Z,45.78
2023-09-18T01:39:16.034Z,45.92
2023-09-18T01:41:42.482Z,45.94
2023-09-18T01:44:09.004Z,45.84
2023-09-18T01:46:38.732Z,45.75
2023-09-18T01:49:05.219Z,46.01
2023-09-18T01:51:31.592Z,45.99
2023-09-18T01:53:58.082Z,46.01
2023-09-18T01:56:25.217Z,45.97
2023-09-18T01:58:51.924Z,46.03
2023-09-18T02:01:19.027Z,45.94
2023-09-18T02:04:13.212Z,46.08
2023-09-18T02:06:33.544Z,46.00
2023-09-18T02:09:01.725Z,46.20
2023-09-18T02:11:28.779Z,46.08
2023-09-18T02:13:55.285Z,46.15
2023-09-18T02:16:25.235Z,46.09
2023-09-18T02:18:51.978Z,46.20
2023-09-18T02:21:22.419Z,46.26
2023-09-18T02:23:52.366Z,46.06
2023-09-18T02:26:19.558Z,46.03
2023-09-18T02:28:46.004Z,46.09
2023-09-18T02:31:12.596Z,46.02
2023-09-18T02:33:39.266Z,45.88
2023-09-18T02:36:05.706Z,46.14
2023-09-18T02:38:32.180Z,46.11
2023-09-18T02:40:58.601Z,46.09
2023-09-18T02:43:25.199Z,46.44
2023-09-18T02:45:51.859Z,46.52
2023-09-18T02:48:18.927Z,46.59
2023-09-18T02:50:45.678Z,46.47
2023-09-18T02:53:20.357Z,46.58
2023-09-18T02:55:48.216Z,46.84
2023-09-18T02:58:14.689Z,46.83
2023-09-18T03:00:46.958Z,46.91
2023-09-18T03:03:13.996Z,46.92
2023-09-18T03:05:41.316Z,47.05
2023-09-18T03:08:08.576Z,47.05
2023-09-18T03:10:35.667Z,46.80
2023-09-18T03:13:02.976Z,47.06
2023-09-18T03:15:29.643Z,46.66
2023-09-18T03:17:57.113Z,46.83
2023-09-18T03:20:24.851Z,46.85
2023-09-18T03:22:59.294Z,46.63
2023-09-18T03:25:26.317Z,46.99
2023-09-18T03:27:53.512Z,46.99
2023-09-18T03:30:20.514Z,47.05
2023-09-18T03:32:47.108Z,47.33
2023-09-18T03:35:19.320Z,47.31
2023-09-18T03:37:49.336Z,47.17
2023-09-18T03:40:16.513Z,47.01
2023-09-18T03:42:43.110Z,46.75
2023-09-18T03:45:10.373Z,46.99
2023-09-18T03:47:37.145Z,46.75
2023-09-18T03:50:04.229Z,46.60
2023-09-18T03:52:30.682Z,46.83
2023-09-18T03:54:57.374Z,46.83
2023-09-18T03:57:23.812Z,47.07
2023-09-18T03:59:50.170Z,47.09
2023-09-18T04:02:16.606Z,47.53
2023-09-18T04:04:43.066Z,47.43
2023-09-18T04:07:09.824Z,47.49
2023-09-18T04:09:37.195Z,47.49
2023-09-18T04:12:05.514Z,47.67
2023-09-18T04:14:32.030Z,47.54
2023-09-18T04:16:58.522Z,47.55
2023-09-18T04:19:24.911Z,47.73
2023-09-18T04:21:51.274Z,47.82
2023-09-18T04:24:18.109Z,47.48
2023-09-18T04:26:44.603Z,47.76
2023-09-18T04:29:11.155Z,47.49
2023-09-18T04:31:38.937Z,47.19
2023-09-18T04:34:05.822Z,47.02
2023-09-18T04:36:34.779Z,47.00
2023-09-18T04:39:01.744Z,47.28
2023-09-18T04:41:28.519Z,47.16
2023-09-18T04:43:55.039Z,47.19
2023-09-18T04:46:21.480Z,47.07
2023-09-18T04:48:48.453Z,46.95
2023-09-18T04:51:14.832Z,46.46
2023-09-18T04:53:42.227Z,46.58
2023-09-18T04:56:09.013Z,46.50
2023-09-18T04:58:38.321Z,46.89
2023-09-18T05:01:08.232Z,46.52
2023-09-18T05:03:35.484Z,46.71
2023-09-18T05:06:02.757Z,46.55
2023-09-18T05:08:29.554Z,46.63
2023-09-18T05:10:56.662Z,46.60
2023-09-18T05:13:23.165Z,46.63
2023-09-18T05:15:49.582Z,46.46
2023-09-18T05:18:16.069Z,46.47
2023-09-18T05:20:42.547Z,46.36
2023-09-18T05:23:09.412Z,46.64
2023-09-18T05:25:39.265Z,46.86
2023-09-18T05:28:06.779Z,47.00
2023-09-18T05:30:35.444Z,47.16
2023-09-18T05:33:06.795Z,46.91
2023-09-18T05:35:34.215Z,46.79
2023-09-18T05:38:01.265Z,47.07
2023-09-18T05:40:30.687Z,47.26
2023-09-18T05:42:57.474Z,47.31
2023-09-18T05:45:24.395Z,47.54
2023-09-18T05:47:51.671Z,47.29
2023-09-18T05:50:18.226Z,47.41
2023-09-18T05:52:45.268Z,47.37
2023-09-18T05:55:11.847Z,47.08
2023-09-18T05:57:38.380Z,47.19
2023-09-18T06:00:06.129Z,46.86
2023-09-18T06:02:32.693Z,47.06
2023-09-18T06:05:01.262Z,47.04
2023-09-18T06:07:28.242Z,46.92
2023-09-18T06:09:54.759Z,46.96
2023-09-18T06:12:22.023Z,46.88
2023-09-18T06:14:49.179Z,47.02
2023-09-18T06:17:16.306Z,46.82
2023-09-18T06:19:43.212Z,46.96
2023-09-18T06:22:09.666Z,46.91
2023-09-18T06:24:36.462Z,46.86
2023-09-18T06:27:05.289Z,46.90
2023-09-18T06:29:32.447Z,47.04
2023-09-18T06:31:59.186Z,46.87
2023-09-18T06:34:25.943Z,47.20
2023-09-18T06:36:52.388Z,46.85
2023-09-18T06:39:18.797Z,46.87
2023-09-18T06:41:45.411Z,47.32
2023-09-18T06:44:11.893Z,47.00
2023-09-18T06:46:38.428Z,47.19
2023-09-18T06:49:04.922Z,47.21
2023-09-18T06:54:03.852Z,46.93
2023-09-18T06:56:30.600Z,47.23
2023-09-18T06:58:57.074Z,47.36
2023-09-18T07:01:25.608Z,47.17
2023-09-18T07:03:52.230Z,47.14
2023-09-18T07:06:21.906Z,47.03
2023-09-18T07:08:50.958Z,47.05
2023-09-18T07:11:18.340Z,46.84
2023-09-18T07:13:44.988Z,47.13
2023-09-18T07:16:11.896Z,47.13
2023-09-18T07:18:38.736Z,47.08
2023-09-18T07:21:05.246Z,47.10
2023-09-18T07:23:31.810Z,47.08
2023-09-18T07:26:01.270Z,47.17
2023-09-18T07:28:27.974Z,47.31
2023-09-18T07:30:54.464Z,47.18
2023-09-18T07:33:21.598Z,47.27
2023-09-18T07:35:49.309Z,47.01
2023-09-18T07:38:16.274Z,47.10
2023-09-18T07:40:43.280Z,47.00
2023-09-18T07:43:09.774Z,47.21
2023-09-18T07:45:36.522Z,47.21
2023-09-18T07:48:03.624Z,47.04
2023-09-18T07:50:32.719Z,46.81
2023-09-18T07:52:59.242Z,47.01
2023-09-18T07:55:25.784Z,46.94
2023-09-18T07:57:52.986Z,46.86
2023-09-18T08:00:19.511Z,46.91
2023-09-18T08:02:47.516Z,46.79
2023-09-18T08:05:19.192Z,46.69
2023-09-18T08:07:48.215Z,46.70
2023-09-18T08:10:14.680Z,46.66
2023-09-18T08:12:41.110Z,46.73
2023-09-18T08:15:07.930Z,46.74
2023-09-18T08:17:34.463Z,46.80
2023-09-18T08:20:00.994Z,47.00
2023-09-18T08:22:28.994Z,46.97
2023-09-18T08:24:56.454Z,46.72
2023-09-18T08:27:25.462Z,46.88
2023-09-18T08:29:52.141Z,46.65
2023-09-18T08:34:48.327Z,46.99
2023-09-18T08:37:15.025Z,46.89
2023-09-18T08:39:41.673Z,46.96
2023-09-18T08:42:08.882Z,46.88
2023-09-18T08:44:39.144Z,46.83
2023-09-18T08:47:06.515Z,47.22
2023-09-18T08:49:33.983Z,47.02
2023-09-18T08:52:00.483Z,47.10
2023-09-18T08:54:27.164Z,47.11
2023-09-18T08:56:54.541Z,46.92
2023-09-18T08:59:22.809Z,47.07
2023-09-18T09:01:49.328Z,47.21
2023-09-18T09:04:16.096Z,47.15
2023-09-18T09:06:42.619Z,47.10
2023-09-18T09:09:09.330Z,46.99
2023-09-18T09:11:38.748Z,47.19
2023-09-18T09:14:20.224Z,47.15
2023-09-18T09:16:50.812Z,47.14
2023-09-18T09:19:18.538Z,46.99
2023-09-18T09:21:46.076Z,47.23
2023-09-18T09:24:15.918Z,47.16
2023-09-18T09:26:42.643Z,47.18
2023-09-18T09:29:35.645Z,47.00
2023-09-18T09:32:14.849Z,47.03
2023-09-18T09:34:42.527Z,47.10
2023-09-18T09:37:09.282Z,47.29
2023-09-18T09:39:35.858Z,47.15
2023-09-18T09:42:05.238Z,47.29
2023-09-18T09:44:34.915Z,47.18
2023-09-18T09:47:01.441Z,47.12
2023-09-18T09:49:34.467Z,47.21
2023-09-18T09:52:00.918Z,47.06
2023-09-18T09:54:40.546Z,46.98
2023-09-18T09:57:07.025Z,46.84
2023-09-18T09:59:36.490Z,46.85
2023-09-18T10:02:04.415Z,46.93
2023-09-18T10:04:33.255Z,46.48
2023-09-18T10:07:08.379Z,46.65
2023-09-18T10:09:40.954Z,46.51
2023-09-18T10:12:11.292Z,46.40
2023-09-18T10:14:55.495Z,45.99
2023-09-18T10:17:25.719Z,46.22
2023-09-18T10:20:01.967Z,46.00
2023-09-18T10:22:28.429Z,45.80
2023-09-18T10:25:01.392Z,45.76
2023-09-18T10:27:29.752Z,45.91
2023-09-18T10:29:57.303Z,45.79
2023-09-18T10:32:24.945Z,45.85
2023-09-18T10:34:51.700Z,45.62
2023-09-18T10:37:18.893Z,45.76
2023-09-18T10:39:49.682Z,45.67
2023-09-18T10:42:18.150Z,45.86
2023-09-18T10:44:44.728Z,45.79
2023-09-18T10:47:12.480Z,45.79
2023-09-18T10:49:39.680Z,45.52
2023-09-18T10:52:06.642Z,45.34
2023-09-18T10:54:33.188Z,45.08
2023-09-18T10:56:59.957Z,45.33
2023-09-18T10:59:28.803Z,45.40
2023-09-18T11:01:55.354Z,45.43
2023-09-18T11:04:22.742Z,45.17
2023-09-18T11:06:55.239Z,45.13
2023-09-18T11:09:23.197Z,45.13
2023-09-18T11:12:04.678Z,44.66
2023-09-18T11:14:44.699Z,44.86
2023-09-18T11:17:29.154Z,44.73
2023-09-18T11:20:13.315Z,44.88
2023-09-18T11:22:41.088Z,44.75
2023-09-18T11:25:26.599Z,44.88
2023-09-18T11:27:59.101Z,44.81
2023-09-18T11:30:26.124Z,44.69
2023-09-18T11:32:52.600Z,44.91
2023-09-18T11:35:19.878Z,44.98
2023-09-18T11:37:46.982Z,45.02
2023-09-18T11:40:35.227Z,44.46
2023-09-18T11:43:26.664Z,44.47
2023-09-18T11:45:55.133Z,44.34
2023-09-18T11:48:22.288Z,44.61
2023-09-18T11:50:52.217Z,44.67
2023-09-18T11:53:22.417Z,44.57
2023-09-18T11:55:49.462Z,44.74
2023-09-18T11:58:16.195Z,44.70
2023-09-18T12:00:48.851Z,44.77
2023-09-18T12:03:19.114Z,44.68
2023-09-18T12:05:45.905Z,44.61
2023-09-18T12:08:13.163Z,44.65
2023-09-18T12:10:39.926Z,44.89
2023-09-18T12:13:09.668Z,44.92
2023-09-18T12:15:36.392Z,44.74
2023-09-18T12:18:07.234Z,44.75
2023-09-18T12:20:35.355Z,44.88
2023-09-18T12:23:03.908Z,44.85
2023-09-18T12:25:30.350Z,44.82
2023-09-18T12:27:57.447Z,44.87
2023-09-18T12:30:24.540Z,44.94
2023-09-18T12:32:52.028Z,44.88
2023-09-18T12:35:19.991Z,44.98
2023-09-18T12:37:46.648Z,44.91
2023-09-18T12:40:23.222Z,44.74
2023-09-18T12:42:50.265Z,44.87
2023-09-18T12:45:16.866Z,44.81
2023-09-18T12:47:44.796Z,45.02
2023-09-18T12:50:13.855Z,45.00
2023-09-18T12:52:40.558Z,44.91
2023-09-18T12:55:07.416Z,44.97
2023-09-18T12:57:34.285Z,45.00
2023-09-18T13:00:04.047Z,45.18
2023-09-18T13:02:30.664Z,45.05
2023-09-18T13:04:57.694Z,45.20
2023-09-18T13:07:25.090Z,45.07
2023-09-18T13:10:01.597Z,45.15
2023-09-18T13:12:46.757Z,45.04
2023-09-18T13:15:16.149Z,45.22
2023-09-18T13:17:46.836Z,45.32
2023-09-18T13:20:13.918Z,45.36
2023-09-18T13:22:40.851Z,44.97
2023-09-18T13:25:08.572Z,45.14
2023-09-18T13:27:35.329Z,45.16
2023-09-18T13:30:07.955Z,45.04
2023-09-18T13:32:37.685Z,45.25
2023-09-18T13:35:07.008Z,45.30
2023-09-18T13:37:34.163Z,45.16
2023-09-18T13:40:02.387Z,45.39
2023-09-18T13:42:31.180Z,45.28
2023-09-18T13:44:58.273Z,45.41
2023-09-18T13:47:24.955Z,45.46
2023-09-18T13:49:52.500Z,45.36
2023-09-18T13:52:19.044Z,45.62
2023-09-18T13:54:51.984Z,45.49
2023-09-18T13:57:21.702Z,45.42
2023-09-18T13:59:49.686Z,45.31
2023-09-18T14:02:16.787Z,45.49
2023-09-18T14:04:43.761Z,45.63
2023-09-18T14:07:11.064Z,45.48
2023-09-18T14:09:37.693Z,45.33
2023-09-18T14:12:04.234Z,45.47
2023-09-18T14:14:30.835Z,45.56
2023-09-18T14:16:58.562Z,45.50
2023-09-18T14:19:25.261Z,45.38
2023-09-18T14:21:51.787Z,45.63
2023-09-18T14:24:23.502Z,45.45
2023-09-18T14:26:50.240Z,45.52
2023-09-18T14:29:16.820Z,45.37
2023-09-18T14:31:43.646Z,45.58
2023-09-18T14:34:10.562Z,45.39
2023-09-18T14:36:38.845Z,45.63
2023-09-18T14:39:05.548Z,45.48
2023-09-18T14:41:32.340Z,45.47
2023-09-18T14:43:59.854Z,45.55
2023-09-18T14:46:26.380Z,45.46
2023-09-18T14:48:52.837Z,45.67
2023-09-18T14:51:19.459Z,45.61
2023-09-18T14:53:45.991Z,45.80
2023-09-18T14:56:12.705Z,45.70
2023-09-18T14:58:39.110Z,45.95
2023-09-18T15:01:05.558Z,45.66
2023-09-18T15:03:32.177Z,45.78
2023-09-18T15:05:58.781Z,45.89
2023-09-18T15:08:26.684Z,46.13
2023-09-18T15:10:53.327Z,46.29
2023-09-18T15:13:19.776Z,46.16
2023-09-18T15:15:47.005Z,46.20
2023-09-18T15:18:13.572Z,46.08
2023-09-18T15:20:42.087Z,46.16
2023-09-18T15:23:08.989Z,46.21
2023-09-18T15:25:39.100Z,46.25
2023-09-18T15:28:06.705Z,46.25
2023-09-18T15:30:33.483Z,46.40
2023-09-18T15:33:00.044Z,46.30
2023-09-18T15:35:27.219Z,46.35
2023-09-18T15:37:54.771Z,46.36
2023-09-18T15:40:22.081Z,46.40
2023-09-18T15:42:50.612Z,46.37
2023-09-18T15:45:17.044Z,46.47
2023-09-18T15:47:43.668Z,46.13
2023-09-18T15:50:11.444Z,46.37
2023-09-18T15:52:38.440Z,46.26
2023-09-18T15:55:06.500Z,46.29
2023-09-18T15:57:34.372Z,46.40
2023-09-18T16:00:05.159Z,46.26
2023-09-18T16:02:34.704Z,46.22
2023-09-18T16:05:01.699Z,46.33
2023-09-18T16:07:28.729Z,46.31
2023-09-18T16:09:56.119Z,46.12
2023-09-18T16:12:22.865Z,46.23
2023-09-18T16:14:50.001Z,46.19
2023-09-18T16:17:17.081Z,46.23
2023-09-18T16:19:46.683Z,46.11
2023-09-18T16:22:13.243Z,46.09
2023-09-18T16:24:39.696Z,46.04
2023-09-18T16:27:06.693Z,45.91
2023-09-18T16:29:35.895Z,46.10
2023-09-18T16:32:02.362Z,46.08
2023-09-18T16:34:28.758Z,45.93
2023-09-18T16:36:55.486Z,46.08
2023-09-18T16:39:24.581Z,45.87
2023-09-18T16:41:51.048Z,45.83
2023-09-18T16:44:17.596Z,45.83
2023-09-18T16:46:44.092Z,45.89
2023-09-18T16:49:12.473Z,45.80
2023-09-18T16:51:39.291Z,45.84
2023-09-18T16:54:07.077Z,45.80
2023-09-18T16:56:34.928Z,45.94
2023-09-18T16:59:02.276Z,45.89
2023-09-18T17:01:28.979Z,45.95
2023-09-18T17:03:55.699Z,46.03
2023-09-18T17:06:22.768Z,45.96
2023-09-18T17:08:52.525Z,45.92
2023-09-18T17:11:19.069Z,45.76
2023-09-18T17:13:45.800Z,45.91
2023-09-18T17:16:14.608Z,45.89
2023-09-18T17:18:42.710Z,46.00
2023-09-18T17:21:09.305Z,45.82
2023-09-18T17:23:36.593Z,45.87
2023-09-18T17:26:06.295Z,45.85
2023-09-18T17:28:33.872Z,45.95
2023-09-18T17:31:00.638Z,45.93
2023-09-18T17:33:27.905Z,45.76
2023-09-18T17:35:54.468Z,45.96
2023-09-18T17:38:20.937Z,45.92
2023-09-18T17:40:47.390Z,45.77
2023-09-18T17:43:13.995Z,45.91
2023-09-18T17:45:40.523Z,46.08
2023-09-18T17:48:09.226Z,45.88
2023-09-18T17:50:35.829Z,46.04
2023-09-18T17:53:02.815Z,45.93
2023-09-18T17:55:29.254Z,45.91
2023-09-18T18:00:24.998Z,46.07
2023-09-18T18:02:51.694Z,46.10
2023-09-18T18:05:18.566Z,46.14
2023-09-18T18:07:45.330Z,46.30
2023-09-18T18:10:12.185Z,46.14
2023-09-18T18:12:41.404Z,46.07
2023-09-18T18:15:11.053Z,46.14
2023-09-18T18:17:37.610Z,46.26
2023-09-18T18:20:06.743Z,46.26
2023-09-18T18:22:33.446Z,46.38
2023-09-18T18:24:59.916Z,46.44
2023-09-18T18:27:26.597Z,46.52
2023-09-18T18:29:58.129Z,46.59
2023-09-18T18:32:25.248Z,46.64
2023-09-18T18:34:51.722Z,47.06
2023-09-18T18:37:18.303Z,47.00
2023-09-18T18:39:44.712Z,47.17
2023-09-18T18:42:11.704Z,47.06
2023-09-18T18:44:38.169Z,47.23
2023-09-18T18:47:04.702Z,47.15
2023-09-18T18:49:32.739Z,47.17
2023-09-18T18:51:59.206Z,47.28
2023-09-18T18:54:26.297Z,47.08
2023-09-18T18:56:53.348Z,47.40
2023-09-18T18:59:19.848Z,47.23
2023-09-18T19:01:55.302Z,47.34
2023-09-18T19:04:22.293Z,47.60
2023-09-18T19:06:49.044Z,47.51
2023-09-18T19:09:15.457Z,47.50
2023-09-18T19:11:42.648Z,47.64
2023-09-18T19:14:09.176Z,48.15
2023-09-18T19:16:36.581Z,47.73
2023-09-18T19:19:03.070Z,47.73
2023-09-18T19:21:29.899Z,47.93
2023-09-18T19:23:56.389Z,47.80
2023-09-18T19:26:23.022Z,47.88
2023-09-18T19:28:49.532Z,47.99
2023-09-18T19:31:22.504Z,47.88
2023-09-18T19:33:49.116Z,47.85
2023-09-18T19:36:17.796Z,47.77
2023-09-18T19:38:44.544Z,47.91
2023-09-18T19:41:12.454Z,47.68
2023-09-18T19:43:39.045Z,47.98
2023-09-18T19:46:05.717Z,48.09
2023-09-18T19:48:32.450Z,47.99
2023-09-18T19:51:02.477Z,48.03
2023-09-18T19:53:29.417Z,48.14
2023-09-18T19:55:55.972Z,48.17
2023-09-18T19:58:23.018Z,48.01
2023-09-18T20:00:49.801Z,47.93
2023-09-18T20:03:16.425Z,48.01
2023-09-18T20:05:43.101Z,48.07
2023-09-18T20:08:11.225Z,48.05
2023-09-18T20:10:37.836Z,48.23
2023-09-18T20:13:04.769Z,48.19
2023-09-18T20:15:32.575Z,48.22
2023-09-18T20:17:59.569Z,48.02
2023-09-18T20:20:27.584Z,48.17
2023-09-18T20:22:54.052Z,48.14
2023-09-18T20:25:20.824Z,48.02
2023-09-18T20:27:47.369Z,48.15
2023-09-18T20:30:17.279Z,48.21
2023-09-18T20:32:45.125Z,48.23
2023-09-18T20:35:13.272Z,48.25
2023-09-18T20:37:39.678Z,48.12
2023-09-18T20:40:08.238Z,48.07
2023-09-18T20:42:34.859Z,48.07
2023-09-18T20:45:01.448Z,48.25
2023-09-18T20:47:29.369Z,48.01
2023-09-18T20:49:56.999Z,48.18
2023-09-18T20:52:24.058Z,48.11
2023-09-18T20:54:51.159Z,48.22
2023-09-18T20:57:17.733Z,48.22
2023-09-18T20:59:45.546Z,48.21
2023-09-18T21:02:15.078Z,48.26
2023-09-18T21:04:43.238Z,48.41
2023-09-18T21:07:09.925Z,48.22
2023-09-18T21:09:37.150Z,48.29
2023-09-18T21:12:04.445Z,48.13
2023-09-18T21:14:32.112Z,48.29
2023-09-18T21:16:58.937Z,48.04
2023-09-18T21:19:25.480Z,48.28
2023-09-18T21:21:52.478Z,48.38
2023-09-18T21:24:18.956Z,48.30
2023-09-18T21:26:45.973Z,48.30
2023-09-18T21:29:12.699Z,48.19
2023-09-18T21:31:40.024Z,48.27
2023-09-18T21:34:06.647Z,48.26
2023-09-18T21:36:35.260Z,48.29
2023-09-18T21:39:01.825Z,48.17
2023-09-18T21:41:28.555Z,48.34
2023-09-18T21:43:55.315Z,48.40
2023-09-18T21:46:23.416Z,48.26
2023-09-18T21:48:50.349Z,48.60
2023-09-18T21:51:19.699Z,48.60
2023-09-18T21:53:46.548Z,48.77
2023-09-18T21:56:13.310Z,48.80
2023-09-18T21:58:39.904Z,48.88
2023-09-18T22:01:07.581Z,48.96
2023-09-18T22:03:38.670Z,48.84
2023-09-18T22:06:06.227Z,48.84
2023-09-18T22:08:33.854Z,48.94
2023-09-18T22:11:00.656Z,48.92
2023-09-18T22:13:28.809Z,48.74
2023-09-18T22:15:55.558Z,48.71
2023-09-18T22:18:22.237Z,48.98
2023-09-18T22:20:49.066Z,48.93
2023-09-18T22:23:15.560Z,49.20
2023-09-18T22:25:42.367Z,49.17
2023-09-18T22:28:10.958Z,49.40
2023-09-18T22:30:40.511Z,49.32
2023-09-18T22:33:12.285Z,49.20
2023-09-18T22:35:39.333Z,49.04
2023-09-18T22:38:11.373Z,48.89
2023-09-18T22:40:37.931Z,49.21
2023-09-18T22:43:23.396Z,49.36
2023-09-18T22:46:09.396Z,49.02
2023-09-18T22:48:54.532Z,49.40
2023-09-18T22:51:41.072Z,49.54
2023-09-18T22:54:09.324Z,49.57
2023-09-18T22:56:36.533Z,49.51
2023-09-18T22:59:03.047Z,49.41
2023-09-18T23:01:31.481Z,49.53
2023-09-18T23:03:59.870Z,49.34
2023-09-18T23:06:28.018Z,49.57
2023-09-18T23:08:54.900Z,49.52
2023-09-18T23:11:21.460Z,49.47
2023-09-18T23:13:51.482Z,49.59
2023-09-18T23:16:19.434Z,49.70
2023-09-18T23:18:45.933Z,49.48
2023-09-18T23:21:12.631Z,49.63
2023-09-18T23:23:39.491Z,49.51
2023-09-18T23:26:06.457Z,49.42
2023-09-18T23:28:33.535Z,49.39
2023-09-18T23:31:00.014Z,49.31
2023-09-18T23:33:29.008Z,49.25
2023-09-18T23:35:57.386Z,49.56
2023-09-18T23:38:27.825Z,49.56
2023-09-18T23:40:55.223Z,49.34
2023-09-18T23:43:22.632Z,49.24
2023-09-18T23:45:50.092Z,49.42
2023-09-18T23:48:20.539Z,49.52
2023-09-18T23:50:51.163Z,49.39
2023-09-18T23:53:26.025Z,49.23
2023-09-18T23:55:53.697Z,49.20
2023-09-18T23:58:23.868Z,49.52
